Time;durP1;ratioP1;P1;durP2;ratioP2;P2;SDS_P1;SDS_P2;PMS_P1;PMS_P2;Temp;Humidity;BMP_temperature;BMP_pressure;BME280_temperature;BME280_humidity;BME280_pressure;Samples;Min_cycle;Max_cycle;Signal;HPM_P1;HPM_P2
2024/03/04 00:01:35;;;;;;;82.80;34.33;;;;;;;;;;5004818;28;20258;-70
2024/03/04 00:04:01;;;;;;;87.18;38.97;;;;;;;;;;5010982;28;20782;-70
2024/03/04 00:06:26;;;;;;;86.50;34.88;;;;;;;;;;5011391;28;20024;-70
2024/03/04 00:08:53;;;;;;;83.07;35.13;;;;;;;;;;5009276;28;20126;-70
2024/03/04 00:11:19;;;;;;;82.65;34.45;;;;;;;;;;5010404;28;20371;-70
2024/03/04 00:13:45;;;;;;;84.75;33.53;;;;;;;;;;5007347;28;20128;-70
2024/03/04 00:16:10;;;;;;;87.13;33.63;;;;;;;;;;5004001;28;20088;-70
2024/03/04 00:18:35;;;;;;;80.17;33.50;;;;;;;;;;4998040;28;20697;-70
2024/03/04 00:21:00;;;;;;;82.82;33.90;;;;;;;;;;5006493;28;20280;-70
2024/03/04 00:23:26;;;;;;;81.33;32.57;;;;;;;;;;4996222;28;20022;-70
2024/03/04 00:25:51;;;;;;;86.28;36.78;;;;;;;;;;4991499;28;21029;-69
2024/03/04 00:28:16;;;;;;;77.00;33.10;;;;;;;;;;4993412;28;20044;-69
2024/03/04 00:30:41;;;;;;;85.17;32.90;;;;;;;;;;4999887;28;20257;-69
2024/03/04 00:33:08;;;;;;;72.30;29.80;;;;;;;;;;4997278;28;20660;-70
2024/03/04 00:35:33;;;;;;;73.70;31.42;;;;;;;;;;5008200;28;20033;-70
2024/03/04 00:37:58;;;;;;;72.90;31.33;;;;;;;;;;5005385;28;20393;-70
2024/03/04 00:40:23;;;;;;;72.82;32.67;;;;;;;;;;5004112;28;20649;-70
2024/03/04 00:42:49;;;;;;;81.40;36.27;;;;;;;;;;5004638;28;20073;-70
2024/03/04 00:45:14;;;;;;;77.82;36.17;;;;;;;;;;5006773;28;20276;-70
2024/03/04 00:47:39;;;;;;;78.50;33.33;;;;;;;;;;5006191;28;20030;-70
2024/03/04 00:50:05;;;;;;;75.13;30.33;;;;;;;;;;5005921;28;20520;-70
2024/03/04 00:52:31;;;;;;;68.53;28.67;;;;;;;;;;5005666;28;20543;-69
2024/03/04 00:54:56;;;;;;;84.68;39.70;;;;;;;;;;5009097;28;20108;-70
2024/03/04 00:57:21;;;;;;;75.05;35.60;;;;;;;;;;5002534;28;20054;-69
2024/03/04 00:59:47;;;;;;;86.65;34.10;;;;;;;;;;5003741;28;20474;-70
2024/03/04 01:02:12;;;;;;;83.53;32.40;;;;;;;;;;5000801;28;20460;-70
2024/03/04 01:04:37;;;;;;;80.53;30.97;;;;;;;;;;5008652;28;20297;-69
2024/03/04 01:07:02;;;;;;;78.35;34.97;;;;;;;;;;5009229;28;20328;-70
2024/03/04 01:09:28;;;;;;;77.72;33.10;;;;;;;;;;5006377;28;20025;-70
2024/03/04 01:11:53;;;;;;;79.72;31.50;;;;;;;;;;5005837;28;20025;-70
2024/03/04 01:14:18;;;;;;;81.88;32.80;;;;;;;;;;5002357;28;20022;-70
2024/03/04 01:16:43;;;;;;;83.90;33.30;;;;;;;;;;5009150;28;20156;-70
2024/03/04 01:19:09;;;;;;;86.77;36.30;;;;;;;;;;5004551;28;20594;-70
2024/03/04 01:21:34;;;;;;;97.47;42.92;;;;;;;;;;5002350;28;20257;-70
2024/03/04 01:23:59;;;;;;;78.72;32.40;;;;;;;;;;5008346;28;20155;-70
2024/03/04 01:26:24;;;;;;;78.68;34.88;;;;;;;;;;5007589;28;20025;-70
2024/03/04 01:28:50;;;;;;;90.40;36.80;;;;;;;;;;5007537;28;20018;-70
2024/03/04 01:31:18;;;;;;;89.63;33.47;;;;;;;;;;5007701;28;20416;-70
2024/03/04 01:33:45;;;;;;;83.88;34.15;;;;;;;;;;5004803;28;20818;-70
2024/03/04 01:36:11;;;;;;;92.00;39.38;;;;;;;;;;5003030;28;20366;-70
2024/03/04 01:38:36;;;;;;;79.67;32.97;;;;;;;;;;5002116;28;20040;-69
2024/03/04 01:41:01;;;;;;;74.63;33.17;;;;;;;;;;5009403;28;20252;-70
2024/03/04 01:43:26;;;;;;;79.30;33.28;;;;;;;;;;5009139;28;20748;-70
2024/03/04 01:45:52;;;;;;;86.78;41.47;;;;;;;;;;5009848;28;20053;-70
2024/03/04 01:48:17;;;;;;;85.28;33.53;;;;;;;;;;5009243;28;20036;-70
2024/03/04 01:50:44;;;;;;;88.67;35.07;;;;;;;;;;5009403;28;20044;-70
2024/03/04 01:53:10;;;;;;;89.43;37.95;;;;;;;;;;5005715;28;20272;-70
2024/03/04 01:55:37;;;;;;;79.25;33.28;;;;;;;;;;5007824;28;20036;-70
2024/03/04 01:58:04;;;;;;;86.47;36.72;;;;;;;;;;5009136;28;20424;-70
2024/03/04 02:00:30;;;;;;;80.60;32.70;;;;;;;;;;5005630;28;20021;-69
2024/03/04 02:02:56;;;;;;;83.43;38.75;;;;;;;;;;5007959;28;20029;-70
2024/03/04 02:05:21;;;;;;;77.10;33.33;;;;;;;;;;5008025;28;20026;-70
2024/03/04 02:07:46;;;;;;;84.50;43.25;;;;;;;;;;5004680;28;20483;-69
2024/03/04 02:10:12;;;;;;;95.93;36.63;;;;;;;;;;5004311;28;20586;-70
2024/03/04 02:12:37;;;;;;;87.40;35.67;;;;;;;;;;5008238;28;20021;-70
2024/03/04 02:15:03;;;;;;;87.53;34.88;;;;;;;;;;5009405;28;20018;-69
2024/03/04 02:17:28;;;;;;;82.75;32.60;;;;;;;;;;5007975;28;20064;-70
2024/03/04 02:20:03;;;;;;;84.55;35.10;;;;;;;;;;5008207;28;20037;-70
2024/03/04 02:22:28;;;;;;;87.53;35.25;;;;;;;;;;5000618;28;20018;-70
2024/03/04 02:24:53;;;;;;;78.65;37.55;;;;;;;;;;5010419;28;20037;-70
2024/03/04 02:27:20;;;;;;;83.13;36.13;;;;;;;;;;5011075;28;20029;-70
2024/03/04 02:29:46;;;;;;;80.50;37.13;;;;;;;;;;5013240;28;20340;-70
2024/03/04 02:32:11;;;;;;;83.72;42.08;;;;;;;;;;5010541;28;20242;-70
2024/03/04 02:34:36;;;;;;;82.27;34.93;;;;;;;;;;5009253;28;20088;-69
2024/03/04 02:37:02;;;;;;;73.38;28.92;;;;;;;;;;5009722;28;20248;-69
2024/03/04 02:39:28;;;;;;;71.07;28.85;;;;;;;;;;5011876;28;20100;-70
2024/03/04 02:41:53;;;;;;;71.78;28.33;;;;;;;;;;5012823;28;20098;-70
2024/03/04 02:44:19;;;;;;;61.83;26.33;;;;;;;;;;5012863;28;20030;-70
2024/03/04 02:46:44;;;;;;;63.80;27.08;;;;;;;;;;5012493;28;20465;-70
2024/03/04 02:49:10;;;;;;;63.33;27.47;;;;;;;;;;5010389;28;20505;-70
2024/03/04 02:51:35;;;;;;;64.63;26.30;;;;;;;;;;5009972;28;20300;-70
2024/03/04 02:54:00;;;;;;;63.23;25.43;;;;;;;;;;5010563;28;20440;-69
2024/03/04 02:56:25;;;;;;;62.03;26.90;;;;;;;;;;5008739;28;20268;-69
2024/03/04 02:58:50;;;;;;;59.28;24.38;;;;;;;;;;5012331;28;20286;-70
2024/03/04 03:01:17;;;;;;;63.78;26.10;;;;;;;;;;5009668;28;20109;-70
2024/03/04 03:03:42;;;;;;;59.58;24.73;;;;;;;;;;5007688;28;20033;-70
2024/03/04 03:06:07;;;;;;;64.38;25.27;;;;;;;;;;5007755;28;20026;-70
2024/03/04 03:08:33;;;;;;;62.83;25.37;;;;;;;;;;5011343;28;20394;-70
2024/03/04 03:10:58;;;;;;;71.88;30.83;;;;;;;;;;5004546;28;20288;-70
2024/03/04 03:13:23;;;;;;;69.18;26.83;;;;;;;;;;5005919;28;20049;-70
2024/03/04 03:15:49;;;;;;;59.67;25.13;;;;;;;;;;5011635;28;20018;-70
2024/03/04 03:18:16;;;;;;;69.22;26.38;;;;;;;;;;5001321;28;20429;-70
2024/03/04 03:20:42;;;;;;;67.30;30.10;;;;;;;;;;5001994;28;20025;-69
2024/03/04 03:23:07;;;;;;;55.13;23.13;;;;;;;;;;5007868;28;20018;-70
2024/03/04 03:25:33;;;;;;;58.28;23.77;;;;;;;;;;5008404;28;20022;-69
2024/03/04 03:27:58;;;;;;;49.57;21.50;;;;;;;;;;5003062;28;20015;-70
2024/03/04 03:30:23;;;;;;;59.20;25.63;;;;;;;;;;5010816;28;20938;-69
2024/03/04 03:32:48;;;;;;;57.70;21.65;;;;;;;;;;5011913;28;20261;-70
2024/03/04 03:35:13;;;;;;;56.73;23.60;;;;;;;;;;5003940;28;20431;-70
2024/03/04 03:37:39;;;;;;;52.90;21.93;;;;;;;;;;5006276;28;20283;-69
2024/03/04 03:40:04;;;;;;;57.50;22.10;;;;;;;;;;5012148;28;20265;-70
2024/03/04 03:42:30;;;;;;;48.55;19.83;;;;;;;;;;5007856;28;20823;-70
2024/03/04 03:44:56;;;;;;;58.78;21.10;;;;;;;;;;5008490;28;20104;-70
2024/03/04 03:47:21;;;;;;;51.30;23.00;;;;;;;;;;5010690;28;20109;-70
2024/03/04 03:49:46;;;;;;;55.97;20.27;;;;;;;;;;5007711;28;20037;-70
2024/03/04 03:52:11;;;;;;;56.33;24.40;;;;;;;;;;5005206;28;20022;-69
2024/03/04 03:54:37;;;;;;;53.72;21.15;;;;;;;;;;5008635;28;20257;-70
2024/03/04 03:57:02;;;;;;;54.10;23.07;;;;;;;;;;5010021;28;20117;-70
2024/03/04 03:59:27;;;;;;;47.33;19.93;;;;;;;;;;5004305;28;20821;-70
2024/03/04 04:01:52;;;;;;;43.90;18.98;;;;;;;;;;5010422;28;20276;-70
2024/03/04 04:04:17;;;;;;;47.67;20.50;;;;;;;;;;5011446;28;20022;-70
2024/03/04 04:06:43;;;;;;;39.67;17.17;;;;;;;;;;5000722;28;20624;-69
2024/03/04 04:09:08;;;;;;;39.53;19.20;;;;;;;;;;4997877;28;20489;-70
2024/03/04 04:11:33;;;;;;;50.72;19.55;;;;;;;;;;5004752;28;20025;-70
2024/03/04 04:13:58;;;;;;;45.37;17.27;;;;;;;;;;5008286;28;20108;-70
2024/03/04 04:16:27;;;;;;;38.78;16.88;;;;;;;;;;5010169;28;20714;-69
2024/03/04 04:18:53;;;;;;;41.35;15.23;;;;;;;;;;5006168;28;20026;-70
2024/03/04 04:21:19;;;;;;;29.73;14.50;;;;;;;;;;5002359;28;20054;-70
2024/03/04 04:23:45;;;;;;;40.35;15.98;;;;;;;;;;5001880;28;20272;-69
2024/03/04 04:26:10;;;;;;;32.10;13.50;;;;;;;;;;4999615;28;20387;-70
2024/03/04 04:28:36;;;;;;;34.20;12.70;;;;;;;;;;5001493;28;20311;-70
2024/03/04 04:31:02;;;;;;;38.30;12.23;;;;;;;;;;5011150;28;20751;-70
2024/03/04 04:33:27;;;;;;;30.75;12.35;;;;;;;;;;5009739;28;20026;-70
2024/03/04 04:35:52;;;;;;;30.60;13.82;;;;;;;;;;5010363;28;20021;-70
2024/03/04 04:38:19;;;;;;;36.27;13.40;;;;;;;;;;5000829;28;20088;-70
2024/03/04 04:40:44;;;;;;;25.20;12.77;;;;;;;;;;4997012;28;20337;-70
2024/03/04 04:43:09;;;;;;;28.40;12.00;;;;;;;;;;5006063;28;20109;-70
2024/03/04 04:45:35;;;;;;;34.07;11.77;;;;;;;;;;5010554;28;20810;-69
2024/03/04 04:48:00;;;;;;;30.00;12.07;;;;;;;;;;5008276;28;20347;-70
2024/03/04 04:50:26;;;;;;;28.97;11.67;;;;;;;;;;5009747;28;20253;-69
2024/03/04 04:52:52;;;;;;;32.55;13.07;;;;;;;;;;5008312;28;20740;-70
2024/03/04 04:55:17;;;;;;;30.77;11.30;;;;;;;;;;4993287;28;20121;-69
2024/03/04 04:57:42;;;;;;;23.63;11.70;;;;;;;;;;5004483;28;20268;-70
2024/03/04 05:00:12;;;;;;;30.60;10.80;;;;;;;;;;5009154;28;20732;-70
2024/03/04 05:02:37;;;;;;;26.30;10.82;;;;;;;;;;5004326;28;20022;-70
2024/03/04 05:05:02;;;;;;;22.53;9.67;;;;;;;;;;5009786;28;20032;-69
2024/03/04 05:07:27;;;;;;;24.85;11.32;;;;;;;;;;5010148;28;20311;-69
2024/03/04 05:09:53;;;;;;;29.20;10.47;;;;;;;;;;5003422;28;20019;-70
2024/03/04 05:12:18;;;;;;;28.60;10.68;;;;;;;;;;4998060;28;20758;-70
2024/03/04 05:14:45;;;;;;;25.63;10.07;;;;;;;;;;5006588;28;20042;-70
2024/03/04 05:17:10;;;;;;;26.55;11.50;;;;;;;;;;4999204;28;20254;-70
2024/03/04 05:19:37;;;;;;;28.23;10.20;;;;;;;;;;5006802;28;20404;-69
2024/03/04 05:22:02;;;;;;;25.10;10.77;;;;;;;;;;5008089;28;20269;-70
2024/03/04 05:24:28;;;;;;;35.50;11.30;;;;;;;;;;5006647;28;20026;-70
2024/03/04 05:26:53;;;;;;;26.60;12.02;;;;;;;;;;5002815;28;20335;-69
2024/03/04 05:29:18;;;;;;;32.47;11.63;;;;;;;;;;5006755;28;20021;-69
2024/03/04 05:31:53;;;;;;;26.75;11.45;;;;;;;;;;5008546;28;20014;-69
2024/03/04 05:34:19;;;;;;;27.95;11.18;;;;;;;;;;5006974;28;20192;-69
2024/03/04 05:36:44;;;;;;;31.05;10.32;;;;;;;;;;5007044;28;20060;-69
2024/03/04 05:39:10;;;;;;;25.83;10.75;;;;;;;;;;5002845;28;20018;-70
2024/03/04 05:41:35;;;;;;;29.42;11.52;;;;;;;;;;5002966;28;20105;-70
2024/03/04 05:44:00;;;;;;;22.25;11.18;;;;;;;;;;4996243;28;20122;-70
2024/03/04 05:46:26;;;;;;;26.27;10.35;;;;;;;;;;4999166;28;20023;-70
2024/03/04 05:48:51;;;;;;;21.77;9.73;;;;;;;;;;5008797;28;20025;-69
2024/03/04 05:51:16;;;;;;;25.83;11.10;;;;;;;;;;5004180;28;20020;-70
2024/03/04 05:53:41;;;;;;;24.30;10.50;;;;;;;;;;5007720;28;20028;-70
2024/03/04 05:56:06;;;;;;;22.17;11.43;;;;;;;;;;5007657;28;20260;-70
2024/03/04 05:58:32;;;;;;;29.52;11.13;;;;;;;;;;4993847;28;20257;-70
2024/03/04 06:00:57;;;;;;;27.88;11.13;;;;;;;;;;5006092;28;20030;-70
2024/03/04 06:03:22;;;;;;;29.75;11.55;;;;;;;;;;5009677;28;20018;-70
2024/03/04 06:05:47;;;;;;;29.10;10.63;;;;;;;;;;5008322;28;20034;-70
2024/03/04 06:08:14;;;;;;;35.37;12.57;;;;;;;;;;4999285;28;20620;-69
2024/03/04 06:10:41;;;;;;;36.35;12.25;;;;;;;;;;5020940;28;20275;-70
2024/03/04 06:13:07;;;;;;;34.50;13.20;;;;;;;;;;5005566;28;20061;-69
2024/03/04 06:15:32;;;;;;;34.60;12.77;;;;;;;;;;4993892;28;20026;-70
2024/03/04 06:17:57;;;;;;;38.10;13.20;;;;;;;;;;5005042;28;20267;-69
2024/03/04 06:20:22;;;;;;;33.97;12.38;;;;;;;;;;5003057;28;20038;-69
2024/03/04 06:22:48;;;;;;;39.47;13.18;;;;;;;;;;4998755;28;20034;-70
2024/03/04 06:25:13;;;;;;;36.50;13.95;;;;;;;;;;5004609;28;20037;-69
2024/03/04 06:27:38;;;;;;;38.83;13.27;;;;;;;;;;4999131;28;20026;-70
2024/03/04 06:30:08;;;;;;;34.75;14.65;;;;;;;;;;4999283;28;20022;-70
2024/03/04 06:32:33;;;;;;;34.75;12.70;;;;;;;;;;5002367;28;20021;-69
2024/03/04 06:34:59;;;;;;;39.57;15.23;;;;;;;;;;4996415;28;20083;-69
2024/03/04 06:37:24;;;;;;;33.92;13.93;;;;;;;;;;5001958;28;20268;-69
2024/03/04 06:39:49;;;;;;;37.50;14.07;;;;;;;;;;5000803;28;20554;-70
2024/03/04 06:42:14;;;;;;;37.55;14.70;;;;;;;;;;5003716;28;20276;-70
2024/03/04 06:44:40;;;;;;;34.22;13.60;;;;;;;;;;4997893;28;20022;-70
2024/03/04 06:47:05;;;;;;;34.35;13.77;;;;;;;;;;5002007;28;20038;-69
2024/03/04 06:49:30;;;;;;;34.50;15.00;;;;;;;;;;4995892;28;20030;-70
2024/03/04 06:51:56;;;;;;;39.97;13.68;;;;;;;;;;4996929;28;20026;-69
2024/03/04 06:54:21;;;;;;;30.97;12.27;;;;;;;;;;4996851;28;20578;-70
2024/03/04 06:56:46;;;;;;;26.70;11.70;;;;;;;;;;4998972;28;20273;-68
2024/03/04 06:59:11;;;;;;;30.53;11.63;;;;;;;;;;4997691;28;20296;-68
2024/03/04 07:01:36;;;;;;;32.30;10.57;;;;;;;;;;5001922;28;20384;-68
2024/03/04 07:04:02;;;;;;;27.13;12.17;;;;;;;;;;5004790;28;20292;-68
2024/03/04 07:06:27;;;;;;;31.48;12.32;;;;;;;;;;5004575;28;20767;-68
2024/03/04 07:08:52;;;;;;;30.83;12.82;;;;;;;;;;5003120;28;20021;-68
2024/03/04 07:11:17;;;;;;;27.77;13.90;;;;;;;;;;5007139;28;20038;-69
2024/03/04 07:13:43;;;;;;;29.90;12.65;;;;;;;;;;5005880;28;20481;-69
2024/03/04 07:16:08;;;;;;;34.08;14.80;;;;;;;;;;5001485;28;20030;-69
2024/03/04 07:18:33;;;;;;;28.05;12.30;;;;;;;;;;5006387;28;20030;-69
2024/03/04 07:20:59;;;;;;;39.72;13.68;;;;;;;;;;5005992;28;20026;-69
2024/03/04 07:23:25;;;;;;;26.80;12.43;;;;;;;;;;5001208;28;20018;-69
2024/03/04 07:25:50;;;;;;;28.63;12.45;;;;;;;;;;5004870;28;20022;-69
2024/03/04 07:28:15;;;;;;;27.90;11.25;;;;;;;;;;5012229;28;20033;-70
2024/03/04 07:30:40;;;;;;;31.30;11.80;;;;;;;;;;5004900;28;20033;-68
2024/03/04 07:33:11;;;;;;;42.80;11.57;;;;;;;;;;5000503;28;21710;-69
2024/03/04 07:35:37;;;;;;;36.58;11.00;;;;;;;;;;5004235;28;20068;-69
2024/03/04 07:38:02;;;;;;;43.60;12.23;;;;;;;;;;5023627;28;20038;-69
2024/03/04 07:40:27;;;;;;;34.65;12.63;;;;;;;;;;5002418;28;20021;-69
2024/03/04 07:42:52;;;;;;;24.17;10.77;;;;;;;;;;5011638;28;20113;-69
2024/03/04 07:45:17;;;;;;;26.57;11.83;;;;;;;;;;5006231;28;20022;-69
2024/03/04 07:47:42;;;;;;;28.07;14.60;;;;;;;;;;5011035;28;20803;-69
2024/03/04 07:50:08;;;;;;;35.40;12.47;;;;;;;;;;5008711;28;20293;-69
2024/03/04 07:52:33;;;;;;;35.42;11.85;;;;;;;;;;5006448;28;20332;-69
2024/03/04 07:54:58;;;;;;;33.95;13.35;;;;;;;;;;5002708;28;20079;-69
2024/03/04 07:57:24;;;;;;;35.70;11.30;;;;;;;;;;5006195;28;20030;-69
2024/03/04 07:59:49;;;;;;;32.22;11.75;;;;;;;;;;5011074;28;20030;-69
2024/03/04 08:02:14;;;;;;;30.70;11.88;;;;;;;;;;5010923;28;20483;-69
2024/03/04 08:04:43;;;;;;;25.87;11.77;;;;;;;;;;5007894;28;20026;-69
2024/03/04 08:07:09;;;;;;;28.42;11.45;;;;;;;;;;5004838;28;20763;-69
2024/03/04 08:09:34;;;;;;;28.20;13.07;;;;;;;;;;4994470;28;20026;-69
2024/03/04 08:11:59;;;;;;;33.03;11.63;;;;;;;;;;4997976;28;20033;-69
2024/03/04 08:14:24;;;;;;;31.10;12.15;;;;;;;;;;5009381;28;20026;-69
2024/03/04 08:16:50;;;;;;;30.23;11.63;;;;;;;;;;5008199;28;20021;-69
2024/03/04 08:19:15;;;;;;;38.83;12.48;;;;;;;;;;5008079;28;20389;-69
2024/03/04 08:21:42;;;;;;;36.53;15.27;;;;;;;;;;5008814;28;20485;-69
2024/03/04 08:24:08;;;;;;;34.47;13.32;;;;;;;;;;5002999;28;20707;-69
2024/03/04 08:26:34;;;;;;;30.67;12.30;;;;;;;;;;5008979;28;20118;-69
2024/03/04 08:28:59;;;;;;;35.42;12.82;;;;;;;;;;5008403;28;20245;-69
2024/03/04 08:31:24;;;;;;;32.03;12.73;;;;;;;;;;5004134;28;20022;-69
2024/03/04 08:33:49;;;;;;;42.03;14.90;;;;;;;;;;5006572;28;20022;-69
2024/03/04 08:36:15;;;;;;;44.42;15.75;;;;;;;;;;5009596;28;20328;-69
2024/03/04 08:38:40;;;;;;;31.57;12.77;;;;;;;;;;5004854;28;20069;-69
2024/03/04 08:41:05;;;;;;;39.50;14.57;;;;;;;;;;5001161;28;20676;-69
2024/03/04 08:43:31;;;;;;;39.60;14.70;;;;;;;;;;5009551;28;20068;-69
2024/03/04 08:45:57;;;;;;;33.13;15.07;;;;;;;;;;5010597;28;20272;-69
2024/03/04 08:48:22;;;;;;;37.53;15.10;;;;;;;;;;5010309;28;20029;-69
2024/03/04 08:50:48;;;;;;;34.95;14.00;;;;;;;;;;5001269;28;20064;-69
2024/03/04 08:53:13;;;;;;;34.35;13.57;;;;;;;;;;4997494;28;20125;-69
2024/03/04 08:55:39;;;;;;;28.35;13.00;;;;;;;;;;4997414;28;20104;-69
2024/03/04 08:58:04;;;;;;;34.13;13.80;;;;;;;;;;5004124;28;20428;-69
2024/03/04 09:00:29;;;;;;;35.85;16.50;;;;;;;;;;4998818;28;20288;-69
2024/03/04 09:02:54;;;;;;;31.30;13.43;;;;;;;;;;5006350;28;20703;-69
2024/03/04 09:05:21;;;;;;;35.28;13.98;;;;;;;;;;5010224;28;20292;-69
2024/03/04 09:07:46;;;;;;;41.75;16.40;;;;;;;;;;5007319;28;20021;-69
2024/03/04 09:10:15;;;;;;;36.63;14.13;;;;;;;;;;5005588;28;20022;-69
2024/03/04 09:12:40;;;;;;;44.40;14.23;;;;;;;;;;5000812;28;20262;-69
2024/03/04 09:15:09;;;;;;;28.37;12.97;;;;;;;;;;5003513;28;20025;-69
2024/03/04 09:17:34;;;;;;;29.10;13.15;;;;;;;;;;5001613;28;20691;-69
2024/03/04 09:20:00;;;;;;;31.00;13.90;;;;;;;;;;4997747;28;20034;-69
2024/03/04 09:22:25;;;;;;;34.65;14.13;;;;;;;;;;4992628;28;20279;-69
2024/03/04 09:24:52;;;;;;;37.70;12.95;;;;;;;;;;5000800;28;20025;-69
2024/03/04 09:27:17;;;;;;;39.88;14.05;;;;;;;;;;5009166;28;20552;-69
2024/03/04 09:29:42;;;;;;;38.13;14.57;;;;;;;;;;5007774;28;20156;-69
2024/03/04 09:32:08;;;;;;;35.13;13.85;;;;;;;;;;5002273;28;20019;-69
2024/03/04 09:34:33;;;;;;;37.00;12.98;;;;;;;;;;4990447;28;20034;-69
2024/03/04 09:37:00;;;;;;;38.33;13.27;;;;;;;;;;4990218;28;20050;-69
2024/03/04 09:39:26;;;;;;;33.28;12.73;;;;;;;;;;5004522;28;20281;-69
2024/03/04 09:41:52;;;;;;;31.07;12.13;;;;;;;;;;5001136;28;20040;-69
2024/03/04 09:44:18;;;;;;;23.55;11.50;;;;;;;;;;4999489;28;20296;-69
2024/03/04 09:46:44;;;;;;;35.42;14.25;;;;;;;;;;5008681;28;20034;-69
2024/03/04 09:49:09;;;;;;;29.58;13.18;;;;;;;;;;5009693;28;20014;-69
2024/03/04 09:51:36;;;;;;;29.08;12.18;;;;;;;;;;5009741;28;20022;-69
2024/03/04 09:54:02;;;;;;;29.30;12.52;;;;;;;;;;5006089;28;20029;-71
2024/03/04 09:56:28;;;;;;;30.58;10.63;;;;;;;;;;5002571;28;20017;-69
2024/03/04 09:58:53;;;;;;;39.83;13.57;;;;;;;;;;4990248;28;20011;-69
2024/03/04 10:01:19;;;;;;;26.95;12.15;;;;;;;;;;4990453;28;20019;-68
2024/03/04 10:03:45;;;;;;;30.45;12.98;;;;;;;;;;4990218;28;20034;-68
2024/03/04 10:06:10;;;;;;;26.05;9.90;;;;;;;;;;4990305;28;20056;-69
2024/03/04 10:08:36;;;;;;;24.37;9.67;;;;;;;;;;5003416;28;20401;-69
2024/03/04 10:11:01;;;;;;;24.25;10.88;;;;;;;;;;5000733;28;20277;-69
2024/03/04 10:13:27;;;;;;;21.92;10.88;;;;;;;;;;4999299;28;20113;-69
2024/03/04 10:15:53;;;;;;;21.80;9.90;;;;;;;;;;5000985;28;20021;-68
2024/03/04 10:18:18;;;;;;;22.35;10.13;;;;;;;;;;4997047;28;20022;-68
2024/03/04 10:20:44;;;;;;;24.52;10.18;;;;;;;;;;5008702;28;20097;-68
2024/03/04 10:23:09;;;;;;;23.88;12.98;;;;;;;;;;5009122;28;20036;-68
2024/03/04 10:25:35;;;;;;;26.33;9.75;;;;;;;;;;5009294;28;20025;-68
2024/03/04 10:28:00;;;;;;;20.77;10.23;;;;;;;;;;5004574;28;20088;-69
2024/03/04 10:30:27;;;;;;;25.35;9.05;;;;;;;;;;4998586;28;20026;-69
2024/03/04 10:32:54;;;;;;;19.77;9.10;;;;;;;;;;4992974;28;20108;-68
2024/03/04 10:35:19;;;;;;;22.38;10.57;;;;;;;;;;5005406;28;20113;-69
2024/03/04 10:37:45;;;;;;;19.02;8.40;;;;;;;;;;5009770;28;20128;-69
2024/03/04 10:40:11;;;;;;;21.60;9.85;;;;;;;;;;5013231;28;20017;-69
2024/03/04 10:42:36;;;;;;;21.83;8.95;;;;;;;;;;5011593;28;20029;-68
2024/03/04 10:45:04;;;;;;;24.10;8.43;;;;;;;;;;5006073;28;20026;-69
2024/03/04 10:47:30;;;;;;;16.88;8.75;;;;;;;;;;5006910;28;20080;-68
2024/03/04 10:49:55;;;;;;;25.40;9.25;;;;;;;;;;5010119;28;20036;-69
2024/03/04 10:52:21;;;;;;;22.20;9.05;;;;;;;;;;5013155;28;20030;-69
2024/03/04 10:54:46;;;;;;;18.60;8.73;;;;;;;;;;5013159;28;20041;-68
2024/03/04 10:57:26;;;;;;;21.83;9.18;;;;;;;;;;5006645;28;20077;-68
2024/03/04 10:59:53;;;;;;;17.15;8.48;;;;;;;;;;4997470;28;20022;-68
2024/03/04 11:02:21;;;;;;;20.35;9.13;;;;;;;;;;4999229;28;20061;-68
2024/03/04 11:04:47;;;;;;;20.13;8.00;;;;;;;;;;5007403;28;20112;-69
2024/03/04 11:07:15;;;;;;;18.95;10.05;;;;;;;;;;5012287;28;20026;-68
2024/03/04 11:09:42;;;;;;;18.70;8.05;;;;;;;;;;5011005;28;20017;-68
2024/03/04 11:12:09;;;;;;;15.85;8.25;;;;;;;;;;5007861;28;20032;-68
2024/03/04 11:14:37;;;;;;;20.73;9.95;;;;;;;;;;5011929;28;20026;-68
2024/03/04 11:17:15;;;;;;;23.42;9.98;;;;;;;;;;5006052;28;20025;-69
2024/03/04 11:19:45;;;;;;;19.30;9.50;;;;;;;;;;5009441;28;20500;-69
2024/03/04 11:22:12;;;;;;;14.60;8.35;;;;;;;;;;4996029;28;20030;-69
2024/03/04 11:24:37;;;;;;;23.75;10.63;;;;;;;;;;4997188;28;20464;-69
2024/03/04 11:27:03;;;;;;;21.75;9.23;;;;;;;;;;4999351;28;20026;-69
2024/03/04 11:29:29;;;;;;;22.85;10.95;;;;;;;;;;5003370;28;20018;-69
2024/03/04 11:31:55;;;;;;;24.40;10.68;;;;;;;;;;5002479;28;20041;-69
2024/03/04 11:34:21;;;;;;;22.02;9.77;;;;;;;;;;5008457;28;20030;-69
2024/03/04 11:36:46;;;;;;;17.40;9.65;;;;;;;;;;5011495;28;20080;-69
2024/03/04 11:39:20;;;;;;;18.40;8.80;;;;;;;;;;5001378;28;20112;-69
2024/03/04 11:41:48;;;;;;;22.75;10.63;;;;;;;;;;5000215;28;20023;-68
2024/03/04 11:44:14;;;;;;;28.35;10.52;;;;;;;;;;4992775;28;20149;-69
2024/03/04 11:46:43;;;;;;;26.48;11.57;;;;;;;;;;4993433;28;20109;-68
2024/03/04 11:49:24;;;;;;;20.95;11.07;;;;;;;;;;5005071;28;20025;-68
2024/03/04 11:51:56;;;;;;;30.58;11.70;;;;;;;;;;5004308;28;20022;-68
2024/03/04 11:54:26;;;;;;;22.42;10.18;;;;;;;;;;5010133;28;20040;-68
2024/03/04 11:56:51;;;;;;;;;;;;;;;;;;5004078;28;20014;-69
2024/03/04 11:59:17;;;;;;;20.35;9.60;;;;;;;;;;5023880;28;19917;-69
2024/03/04 12:01:42;;;;;;;28.50;10.13;;;;;;;;;;5008526;28;20374;-69
2024/03/04 12:04:07;;;;;;;17.63;9.20;;;;;;;;;;5011666;28;20026;-68
2024/03/04 12:06:33;;;;;;;25.23;10.53;;;;;;;;;;5004964;28;20281;-68
2024/03/04 12:09:00;;;;;;;22.58;9.75;;;;;;;;;;5011391;28;20256;-68
2024/03/04 12:11:25;;;;;;;19.65;10.07;;;;;;;;;;5005531;28;20022;-68
2024/03/04 12:13:52;;;;;;;26.27;10.18;;;;;;;;;;5000828;28;20023;-68
2024/03/04 12:16:17;;;;;;;21.98;9.85;;;;;;;;;;4998825;28;20056;-69
2024/03/04 12:18:42;;;;;;;19.77;9.70;;;;;;;;;;4991585;28;20649;-69
2024/03/04 12:21:08;;;;;;;27.30;11.20;;;;;;;;;;4991926;28;20261;-68
2024/03/04 12:23:34;;;;;;;17.87;9.37;;;;;;;;;;4991895;28;20121;-69
2024/03/04 12:26:12;;;;;;;19.02;9.68;;;;;;;;;;5003526;28;20375;-69
2024/03/04 12:28:38;;;;;;;23.50;9.73;;;;;;;;;;5001794;28;20057;-69
2024/03/04 12:31:12;;;;;;;17.00;8.75;;;;;;;;;;5011318;28;20038;-68
2024/03/04 12:33:38;;;;;;;27.00;9.25;;;;;;;;;;5010874;28;20022;-69
2024/03/04 12:36:06;;;;;;;20.42;8.75;;;;;;;;;;5005091;28;20076;-69
2024/03/04 12:38:32;;;;;;;22.23;9.65;;;;;;;;;;5011141;28;20041;-69
2024/03/04 12:40:58;;;;;;;18.05;9.48;;;;;;;;;;5010703;28;20535;-70
2024/03/04 12:43:23;;;;;;;23.63;9.68;;;;;;;;;;5002259;28;20112;-70
2024/03/04 12:45:49;;;;;;;22.20;8.98;;;;;;;;;;5006765;28;20021;-70
2024/03/04 12:48:15;;;;;;;19.08;8.82;;;;;;;;;;5010557;28;20030;-69
2024/03/04 12:50:43;;;;;;;20.33;8.77;;;;;;;;;;5010939;28;20053;-69
2024/03/04 12:53:09;;;;;;;20.55;8.10;;;;;;;;;;5011011;28;20401;-69
2024/03/04 12:55:35;;;;;;;19.38;8.80;;;;;;;;;;5010867;28;20707;-70
2024/03/04 12:58:00;;;;;;;15.80;6.93;;;;;;;;;;4998749;28;20026;-70
2024/03/04 13:00:26;;;;;;;14.57;7.60;;;;;;;;;;5001631;28;20034;-69
2024/03/04 13:02:52;;;;;;;15.68;7.72;;;;;;;;;;5006065;28;20159;-70
2024/03/04 13:05:17;;;;;;;13.97;7.83;;;;;;;;;;5010622;28;20030;-70
2024/03/04 13:07:44;;;;;;;14.35;6.97;;;;;;;;;;5010239;28;20624;-69
2024/03/04 13:10:09;;;;;;;13.15;6.90;;;;;;;;;;5010348;28;20024;-70
2024/03/04 13:12:39;;;;;;;14.93;6.85;;;;;;;;;;5010428;28;20029;-70
2024/03/04 13:15:06;;;;;;;17.23;7.68;;;;;;;;;;4999855;28;20022;-69
2024/03/04 13:17:31;;;;;;;16.40;7.88;;;;;;;;;;5006851;28;20022;-70
2024/03/04 13:19:56;;;;;;;19.65;7.50;;;;;;;;;;5010200;28;20040;-69
2024/03/04 13:22:21;;;;;;;12.45;7.20;;;;;;;;;;5010537;28;20850;-70
2024/03/04 13:24:47;;;;;;;15.17;7.23;;;;;;;;;;5008922;28;20108;-69
2024/03/04 13:27:12;;;;;;;23.27;8.60;;;;;;;;;;5010009;28;20276;-69
2024/03/04 13:29:37;;;;;;;16.55;8.52;;;;;;;;;;5006568;28;20269;-69
2024/03/04 13:32:03;;;;;;;18.83;7.57;;;;;;;;;;4997729;28;20029;-70
2024/03/04 13:34:29;;;;;;;14.23;6.97;;;;;;;;;;4997797;28;20268;-69
2024/03/04 13:36:54;;;;;;;16.27;7.13;;;;;;;;;;5009779;28;20088;-70
2024/03/04 13:39:19;;;;;;;14.57;7.53;;;;;;;;;;5007556;28;20022;-69
2024/03/04 13:41:44;;;;;;;14.90;7.17;;;;;;;;;;5009105;28;20037;-70
2024/03/04 13:44:10;;;;;;;13.75;7.10;;;;;;;;;;5004382;28;20756;-69
2024/03/04 13:46:35;;;;;;;13.18;7.13;;;;;;;;;;4997484;28;20021;-70
2024/03/04 13:49:00;;;;;;;12.45;6.90;;;;;;;;;;4998588;28;20026;-69
2024/03/04 13:51:25;;;;;;;14.97;8.03;;;;;;;;;;5009870;28;20056;-70
2024/03/04 13:53:51;;;;;;;17.67;8.60;;;;;;;;;;5009622;28;20318;-69
2024/03/04 13:56:16;;;;;;;15.20;7.53;;;;;;;;;;5009897;28;20261;-70
2024/03/04 13:58:41;;;;;;;15.40;7.57;;;;;;;;;;5002700;28;20273;-70
2024/03/04 14:01:06;;;;;;;16.48;6.97;;;;;;;;;;5003507;28;20265;-70
2024/03/04 14:03:31;;;;;;;22.30;7.23;;;;;;;;;;5000645;28;20084;-69
2024/03/04 14:05:56;;;;;;;11.90;6.60;;;;;;;;;;5009417;28;20577;-70
2024/03/04 14:08:23;;;;;;;18.30;7.38;;;;;;;;;;5009512;28;20257;-69
2024/03/04 14:10:48;;;;;;;13.05;6.30;;;;;;;;;;5009237;28;20014;-70
2024/03/04 14:13:13;;;;;;;13.30;6.07;;;;;;;;;;5006974;28;20030;-69